Time;durP1;ratioP1;P1;durP2;ratioP2;P2;SDS_P1;SDS_P2;PMS_P1;PMS_P2;Temp;Humidity;BMP_temperature;BMP_pressure;BME280_temperature;BME280_humidity;BME280_pressure;Samples;Min_cycle;Max_cycle;Signal;HPM_P1;HPM_P2
2023/07/19 00:01:13;;;;;;;15.40;6.47;;;;;;;;;;4995041;28;20221;-74
2023/07/19 00:04:17;;;;;;;10.43;6.07;;;;;;;;;;4994959;28;20538;-74
2023/07/19 00:07:21;;;;;;;11.67;6.23;;;;;;;;;;4995390;28;20182;-74
2023/07/19 00:10:25;;;;;;;8.30;5.77;;;;;;;;;;4995491;28;20610;-74
2023/07/19 00:13:29;;;;;;;10.83;5.90;;;;;;;;;;4994679;28;20186;-74
2023/07/19 00:16:34;;;;;;;9.77;5.60;;;;;;;;;;4983064;28;20210;-74
2023/07/19 00:19:38;;;;;;;9.57;5.80;;;;;;;;;;4994824;28;20186;-74
2023/07/19 00:22:42;;;;;;;9.07;5.30;;;;;;;;;;4994791;28;20561;-74
2023/07/19 00:25:46;;;;;;;12.93;6.43;;;;;;;;;;4972095;28;20174;-74
2023/07/19 00:28:51;;;;;;;9.57;6.30;;;;;;;;;;4982820;28;20182;-74
2023/07/19 00:31:54;;;;;;;14.87;6.00;;;;;;;;;;4971880;28;20563;-74
2023/07/19 00:34:58;;;;;;;13.97;6.40;;;;;;;;;;4982644;28;20181;-74
2023/07/19 00:38:02;;;;;;;13.27;6.77;;;;;;;;;;4994335;28;20178;-74
2023/07/19 00:41:07;;;;;;;9.73;6.50;;;;;;;;;;4994083;28;20229;-74
2023/07/19 00:44:11;;;;;;;9.40;5.90;;;;;;;;;;4994124;28;20664;-74
2023/07/19 00:47:16;;;;;;;10.73;5.13;;;;;;;;;;4994106;28;20198;-74
2023/07/19 00:50:20;;;;;;;12.50;6.40;;;;;;;;;;4994332;28;20205;-74
2023/07/19 00:53:27;;;;;;;9.53;6.10;;;;;;;;;;5024476;23;20232;-72
2023/07/19 00:56:32;;;;;;;7.70;5.60;;;;;;;;;;5032713;28;20209;-72
2023/07/19 00:59:37;;;;;;;9.63;5.73;;;;;;;;;;5021578;28;20177;-72
2023/07/19 01:02:43;;;;;;;10.13;5.57;;;;;;;;;;5033040;28;20216;-72
2023/07/19 01:05:48;;;;;;;10.07;5.87;;;;;;;;;;5032533;28;20172;-73
2023/07/19 01:08:52;;;;;;;13.10;5.53;;;;;;;;;;5032731;28;20196;-73
2023/07/19 01:11:56;;;;;;;9.80;5.40;;;;;;;;;;5032952;28;20225;-72
2023/07/19 01:15:05;;;;;;;8.80;5.57;;;;;;;;;;5032448;28;20177;-72
2023/07/19 01:18:09;;;;;;;11.87;5.63;;;;;;;;;;5032339;28;20188;-72
2023/07/19 01:21:13;;;;;;;7.37;5.43;;;;;;;;;;5032785;28;20556;-73
2023/07/19 01:24:18;;;;;;;7.27;5.80;;;;;;;;;;5021534;28;20173;-73
2023/07/19 01:27:23;;;;;;;11.73;6.07;;;;;;;;;;5033075;28;20176;-73
2023/07/19 01:30:27;;;;;;;8.03;5.67;;;;;;;;;;5032701;28;20181;-73
2023/07/19 01:33:31;;;;;;;9.17;5.93;;;;;;;;;;5032513;28;20516;-72
2023/07/19 01:36:35;;;;;;;9.47;5.87;;;;;;;;;;5033072;28;20208;-73
2023/07/19 01:39:39;;;;;;;10.97;5.83;;;;;;;;;;5033527;28;20180;-73
2023/07/19 01:42:44;;;;;;;8.60;5.70;;;;;;;;;;5021012;28;20212;-73
2023/07/19 01:45:48;;;;;;;9.60;5.43;;;;;;;;;;5032291;28;20185;-72
2023/07/19 01:48:51;;;;;;;10.87;5.90;;;;;;;;;;5032436;28;20545;-73
2023/07/19 01:51:55;;;;;;;7.27;5.60;;;;;;;;;;5032525;28;20580;-72
2023/07/19 01:55:00;;;;;;;11.77;6.40;;;;;;;;;;5032297;28;20176;-72
2023/07/19 01:58:04;;;;;;;9.27;5.40;;;;;;;;;;5033063;28;20177;-73
2023/07/19 02:01:08;;;;;;;9.30;6.20;;;;;;;;;;5032209;28;20224;-73
2023/07/19 02:04:12;;;;;;;8.47;6.17;;;;;;;;;;5020885;28;20173;-73
2023/07/19 02:07:17;;;;;;;10.00;5.97;;;;;;;;;;5032175;28;20177;-73
2023/07/19 02:10:23;;;;;;;8.57;5.53;;;;;;;;;;5020935;28;20177;-72
2023/07/19 02:13:27;;;;;;;7.90;5.70;;;;;;;;;;5032138;28;20185;-73
2023/07/19 02:16:31;;;;;;;10.40;6.13;;;;;;;;;;5020025;28;20228;-72
2023/07/19 02:19:35;;;;;;;7.37;6.03;;;;;;;;;;5024383;28;20176;-73
2023/07/19 02:22:40;;;;;;;9.63;5.90;;;;;;;;;;5035699;28;20220;-73
2023/07/19 02:25:48;;;;;;;9.00;6.50;;;;;;;;;;5036569;28;20180;-73
2023/07/19 02:28:52;;;;;;;8.40;6.20;;;;;;;;;;5035405;28;20177;-72
2023/07/19 02:31:56;;;;;;;7.00;5.40;;;;;;;;;;5035337;28;20690;-72
2023/07/19 02:35:00;;;;;;;8.47;5.03;;;;;;;;;;5024147;28;20181;-73
2023/07/19 02:38:04;;;;;;;8.87;5.73;;;;;;;;;;5035475;28;20208;-73
2023/07/19 02:41:10;;;;;;;15.13;5.60;;;;;;;;;;5035641;28;20547;-72
2023/07/19 02:44:13;;;;;;;11.07;6.13;;;;;;;;;;5023775;28;20196;-73
2023/07/19 02:47:18;;;;;;;8.10;5.23;;;;;;;;;;5035399;28;20181;-73
2023/07/19 02:50:22;;;;;;;9.27;5.30;;;;;;;;;;5035053;28;20181;-73
2023/07/19 02:53:26;;;;;;;10.90;6.03;;;;;;;;;;5035752;28;20551;-72
2023/07/19 02:56:30;;;;;;;14.83;5.97;;;;;;;;;;5035965;28;20217;-73
2023/07/19 02:59:35;;;;;;;9.73;5.23;;;;;;;;;;5035958;28;20627;-72
2023/07/19 03:02:39;;;;;;;8.30;5.23;;;;;;;;;;5034808;28;20213;-73
2023/07/19 03:05:44;;;;;;;12.07;6.70;;;;;;;;;;5035263;28;20666;-73
2023/07/19 03:08:48;;;;;;;9.13;5.40;;;;;;;;;;5035001;28;20169;-73
2023/07/19 03:11:52;;;;;;;8.67;5.80;;;;;;;;;;5023487;28;20208;-72
2023/07/19 03:14:57;;;;;;;7.67;5.40;;;;;;;;;;5035624;28;20177;-73
2023/07/19 03:18:04;;;;;;;7.77;5.33;;;;;;;;;;5035209;28;20220;-73
2023/07/19 03:21:08;;;;;;;11.53;6.50;;;;;;;;;;5034698;28;20698;-72
2023/07/19 03:24:13;;;;;;;23.23;10.07;;;;;;;;;;5022977;28;20185;-73
2023/07/19 03:27:17;;;;;;;13.13;7.83;;;;;;;;;;5034904;28;20184;-73
2023/07/19 03:30:21;;;;;;;14.20;7.20;;;;;;;;;;5033692;28;20173;-72
2023/07/19 03:33:26;;;;;;;7.70;5.40;;;;;;;;;;5023162;28;20181;-73
2023/07/19 03:36:30;;;;;;;10.50;5.27;;;;;;;;;;5034364;28;20217;-73
2023/07/19 03:39:35;;;;;;;12.07;6.07;;;;;;;;;;5022784;28;20181;-72
2023/07/19 03:42:39;;;;;;;9.70;5.50;;;;;;;;;;5034023;28;20212;-72
2023/07/19 03:45:43;;;;;;;12.07;6.03;;;;;;;;;;5034432;28;20631;-72
2023/07/19 03:48:47;;;;;;;11.73;6.00;;;;;;;;;;5033888;28;20192;-73
2023/07/19 03:51:51;;;;;;;8.80;5.90;;;;;;;;;;5022556;28;20224;-73
2023/07/19 03:54:57;;;;;;;9.77;5.80;;;;;;;;;;5033772;28;20196;-72
2023/07/19 03:58:05;;;;;;;9.77;6.20;;;;;;;;;;5033946;28;20213;-73
2023/07/19 04:01:09;;;;;;;8.33;5.50;;;;;;;;;;5022482;28;20216;-72
2023/07/19 04:04:13;;;;;;;9.47;5.10;;;;;;;;;;5022466;28;20200;-72
2023/07/19 04:07:18;;;;;;;7.57;5.67;;;;;;;;;;5034559;28;20193;-72
2023/07/19 04:10:22;;;;;;;9.90;5.93;;;;;;;;;;5033518;28;20184;-72
2023/07/19 04:13:27;;;;;;;9.83;5.30;;;;;;;;;;5022239;28;20185;-72
2023/07/19 04:16:32;;;;;;;7.77;5.43;;;;;;;;;;5032956;28;20185;-70
2023/07/19 04:19:36;;;;;;;11.63;5.60;;;;;;;;;;5018271;28;20188;-70
2023/07/19 04:22:40;;;;;;;9.97;5.90;;;;;;;;;;5033143;28;20216;-71
2023/07/19 04:25:45;;;;;;;11.37;5.97;;;;;;;;;;5027007;28;20189;-70
2023/07/19 04:28:49;;;;;;;11.37;5.50;;;;;;;;;;5013436;28;20181;-73
2023/07/19 04:31:53;;;;;;;12.43;6.00;;;;;;;;;;5013257;28;20217;-72
2023/07/19 04:34:58;;;;;;;9.83;6.00;;;;;;;;;;5013545;28;20510;-72
2023/07/19 04:38:04;;;;;;;8.50;5.60;;;;;;;;;;5001806;28;20225;-72
2023/07/19 04:41:09;;;;;;;10.30;5.87;;;;;;;;;;5013001;28;20691;-72
2023/07/19 04:44:13;;;;;;;10.87;5.83;;;;;;;;;;5013159;28;20181;-72
2023/07/19 04:47:17;;;;;;;13.40;6.83;;;;;;;;;;5013113;28;20182;-72
2023/07/19 04:50:23;;;;;;;10.77;5.87;;;;;;;;;;5012714;28;20209;-71
2023/07/19 04:53:27;;;;;;;12.73;6.27;;;;;;;;;;5013768;28;20205;-72
2023/07/19 04:56:34;;;;;;;12.67;6.30;;;;;;;;;;5012862;28;20181;-72
2023/07/19 04:59:39;;;;;;;9.93;6.47;;;;;;;;;;5013174;28;20177;-72
2023/07/19 05:02:43;;;;;;;13.67;7.10;;;;;;;;;;5001622;28;20212;-71
2023/07/19 05:05:47;;;;;;;9.90;6.00;;;;;;;;;;5001565;28;20644;-72
2023/07/19 05:08:52;;;;;;;9.33;5.80;;;;;;;;;;5012769;28;20181;-72
2023/07/19 05:11:56;;;;;;;12.57;5.93;;;;;;;;;;5013645;28;20221;-74
2023/07/19 05:15:00;;;;;;;12.93;5.77;;;;;;;;;;5001984;28;20185;-72
2023/07/19 05:18:06;;;;;;;13.63;6.47;;;;;;;;;;5012934;28;20205;-72
2023/07/19 05:21:11;;;;;;;23.33;7.40;;;;;;;;;;5012648;28;20233;-71
2023/07/19 05:24:15;;;;;;;15.03;7.40;;;;;;;;;;5013236;28;20181;-71
2023/07/19 05:27:20;;;;;;;15.50;7.67;;;;;;;;;;5012751;28;20186;-71
2023/07/19 05:30:24;;;;;;;18.17;7.20;;;;;;;;;;5012755;28;20177;-72
2023/07/19 05:33:28;;;;;;;12.43;6.90;;;;;;;;;;5012772;28;20177;-71
2023/07/19 05:36:33;;;;;;;15.23;7.70;;;;;;;;;;5013521;28;20621;-71
2023/07/19 05:39:38;;;;;;;14.87;6.90;;;;;;;;;;5012373;28;20534;-72
2023/07/19 05:42:42;;;;;;;15.93;7.00;;;;;;;;;;5001015;28;20573;-71
2023/07/19 05:45:46;;;;;;;11.03;6.23;;;;;;;;;;5013444;28;20620;-72
2023/07/19 05:48:50;;;;;;;9.63;6.03;;;;;;;;;;5013437;28;20178;-71
2023/07/19 05:51:55;;;;;;;16.53;6.70;;;;;;;;;;5001257;28;20221;-71
2023/07/19 05:54:59;;;;;;;9.67;6.20;;;;;;;;;;5017325;28;20177;-72
2023/07/19 05:58:03;;;;;;;10.80;6.57;;;;;;;;;;5016542;28;20201;-72
2023/07/19 06:01:09;;;;;;;9.90;6.47;;;;;;;;;;5016730;28;20217;-71
2023/07/19 06:04:14;;;;;;;12.40;6.77;;;;;;;;;;5005476;28;20178;-72
2023/07/19 06:07:18;;;;;;;13.83;6.33;;;;;;;;;;5016581;28;20177;-72
2023/07/19 06:10:22;;;;;;;12.07;6.20;;;;;;;;;;5016957;28;20197;-71
2023/07/19 06:13:26;;;;;;;12.03;6.40;;;;;;;;;;5016404;28;20201;-72
2023/07/19 06:16:30;;;;;;;9.30;6.60;;;;;;;;;;5016667;28;20181;-72
2023/07/19 06:19:35;;;;;;;11.60;6.10;;;;;;;;;;5015820;28;20197;-71
2023/07/19 06:22:39;;;;;;;14.43;6.37;;;;;;;;;;5016514;28;20700;-72
2023/07/19 06:25:46;;;;;;;12.53;6.70;;;;;;;;;;5017038;28;20628;-72
2023/07/19 06:28:50;;;;;;;9.80;5.77;;;;;;;;;;5016679;28;20198;-72
2023/07/19 06:31:54;;;;;;;9.77;5.77;;;;;;;;;;5016583;28;20557;-72
2023/07/19 06:34:58;;;;;;;9.20;5.77;;;;;;;;;;5016848;28;20513;-72
2023/07/19 06:38:02;;;;;;;12.40;6.77;;;;;;;;;;5016473;28;20205;-73
2023/07/19 06:41:07;;;;;;;18.40;6.57;;;;;;;;;;5016099;28;20220;-72
2023/07/19 06:44:12;;;;;;;12.07;6.73;;;;;;;;;;5015609;28;20178;-72
2023/07/19 06:47:16;;;;;;;9.93;6.37;;;;;;;;;;5016128;28;20177;-72
2023/07/19 06:50:20;;;;;;;9.30;6.20;;;;;;;;;;5016087;28;20208;-71
2023/07/19 06:53:24;;;;;;;10.03;5.53;;;;;;;;;;5014911;28;20554;-72
2023/07/19 06:56:28;;;;;;;9.87;5.67;;;;;;;;;;5016716;28;20186;-72
2023/07/19 06:59:33;;;;;;;9.80;5.80;;;;;;;;;;5015500;28;20206;-72
2023/07/19 07:02:38;;;;;;;14.97;5.50;;;;;;;;;;5040394;22;20576;-72
2023/07/19 07:05:48;;;;;;;9.53;5.83;;;;;;;;;;4975014;28;20218;-74
2023/07/19 07:08:52;;;;;;;12.80;5.17;;;;;;;;;;4975877;28;20666;-74
2023/07/19 07:11:56;;;;;;;8.83;5.00;;;;;;;;;;4976554;28;20249;-73
2023/07/19 07:15:02;;;;;;;7.53;4.97;;;;;;;;;;4976722;28;20184;-73
2023/07/19 07:18:08;;;;;;;7.60;5.10;;;;;;;;;;4976406;28;20211;-73
2023/07/19 07:21:15;;;;;;;5.87;4.60;;;;;;;;;;4964336;28;20576;-74
2023/07/19 07:24:19;;;;;;;8.30;5.00;;;;;;;;;;4975205;28;20189;-73
2023/07/19 07:27:23;;;;;;;10.00;4.90;;;;;;;;;;4976410;28;20620;-73
2023/07/19 07:30:27;;;;;;;8.73;5.33;;;;;;;;;;4975923;28;20179;-73
2023/07/19 07:33:31;;;;;;;10.60;4.90;;;;;;;;;;4976234;28;20199;-73
2023/07/19 07:36:36;;;;;;;8.40;5.10;;;;;;;;;;4975644;28;20204;-74
2023/07/19 07:39:40;;;;;;;11.68;6.30;;;;;;;;;;4976280;28;20682;-71
2023/07/19 07:42:44;;;;;;;10.35;4.45;;;;;;;;;;4976535;28;20236;-71
2023/07/19 07:45:48;;;;;;;8.35;4.18;;;;;;;;;;4976279;28;20187;-72
2023/07/19 07:48:52;;;;;;;8.38;4.43;;;;;;;;;;4975372;28;20527;-72
2023/07/19 07:51:56;;;;;;;6.22;4.45;;;;;;;;;;4976363;28;20215;-72
2023/07/19 07:55:00;;;;;;;7.55;4.50;;;;;;;;;;4975269;28;20181;-72
2023/07/19 07:58:04;;;;;;;7.88;4.63;;;;;;;;;;4975040;28;20202;-71
2023/07/19 08:01:08;;;;;;;5.93;4.25;;;;;;;;;;4975128;28;20228;-72
2023/07/19 08:04:12;;;;;;;6.30;3.95;;;;;;;;;;4974921;28;20672;-72
2023/07/19 08:07:16;;;;;;;6.85;4.25;;;;;;;;;;4975873;28;20205;-72
2023/07/19 08:10:21;;;;;;;9.50;4.55;;;;;;;;;;4975850;28;20180;-72
2023/07/19 08:13:25;;;;;;;7.35;3.50;;;;;;;;;;4975747;28;20187;-72
2023/07/19 08:16:29;;;;;;;6.68;3.95;;;;;;;;;;4975041;28;20181;-72
2023/07/19 08:19:34;;;;;;;6.50;3.65;;;;;;;;;;4975604;28;20203;-72
2023/07/19 08:22:38;;;;;;;6.00;3.85;;;;;;;;;;4975263;28;20218;-72
2023/07/19 08:25:42;;;;;;;9.57;3.63;;;;;;;;;;4975833;28;20183;-72
2023/07/19 08:28:46;;;;;;;5.72;3.63;;;;;;;;;;4975217;28;20183;-72
2023/07/19 08:31:50;;;;;;;6.90;3.72;;;;;;;;;;4974585;28;20211;-72
2023/07/19 08:34:54;;;;;;;9.85;3.45;;;;;;;;;;4975132;28;20638;-72
2023/07/19 08:37:58;;;;;;;7.07;3.83;;;;;;;;;;4975177;28;20179;-72
2023/07/19 08:41:03;;;;;;;7.45;3.80;;;;;;;;;;4975408;28;20218;-72
2023/07/19 08:44:09;;;;;;;4.18;3.25;;;;;;;;;;4974176;28;20187;-72
2023/07/19 08:47:14;;;;;;;6.97;3.90;;;;;;;;;;4974421;28;20183;-72
2023/07/19 08:50:18;;;;;;;5.03;3.78;;;;;;;;;;4975075;28;20527;-72
2023/07/19 08:53:24;;;;;;;4.90;3.28;;;;;;;;;;4974797;28;20198;-72
2023/07/19 08:56:31;;;;;;;5.15;3.92;;;;;;;;;;4974270;28;20191;-72
2023/07/19 08:59:36;;;;;;;6.05;3.20;;;;;;;;;;4974871;28;20261;-72
2023/07/19 09:02:40;;;;;;;6.65;3.15;;;;;;;;;;4974768;28;20219;-72
2023/07/19 09:05:45;;;;;;;4.93;3.13;;;;;;;;;;4962870;28;20183;-72
2023/07/19 09:08:51;;;;;;;6.65;3.25;;;;;;;;;;4975182;28;20179;-72
2023/07/19 09:11:55;;;;;;;4.25;2.92;;;;;;;;;;4973694;28;20219;-72
2023/07/19 09:15:00;;;;;;;8.70;2.90;;;;;;;;;;4974486;28;20175;-72
2023/07/19 09:18:05;;;;;;;4.28;2.90;;;;;;;;;;4975082;28;20525;-72
2023/07/19 09:21:09;;;;;;;4.80;2.92;;;;;;;;;;4975108;28;20211;-72
2023/07/19 09:24:14;;;;;;;5.05;3.10;;;;;;;;;;4974397;28;20194;-72
2023/07/19 09:27:25;;;;;;;3.40;3.03;;;;;;;;;;4974030;28;20187;-72
2023/07/19 09:30:29;;;;;;;5.93;2.85;;;;;;;;;;4974017;28;20179;-72
2023/07/19 09:33:33;;;;;;;3.55;2.85;;;;;;;;;;4974275;28;20547;-72
2023/07/19 09:36:39;;;;;;;4.50;2.75;;;;;;;;;;4974399;28;20534;-72
2023/07/19 09:39:44;;;;;;;5.80;3.00;;;;;;;;;;4974214;28;20674;-72
2023/07/19 09:42:52;;;;;;;7.32;3.03;;;;;;;;;;4974424;28;20690;-72
2023/07/19 09:45:57;;;;;;;5.63;2.40;;;;;;;;;;4973574;28;20187;-72
2023/07/19 09:49:02;;;;;;;3.60;2.75;;;;;;;;;;4974657;28;20666;-72
2023/07/19 09:52:06;;;;;;;3.72;2.90;;;;;;;;;;4974415;28;20678;-72
2023/07/19 09:55:12;;;;;;;3.40;2.50;;;;;;;;;;4974311;28;20183;-72
2023/07/19 09:58:17;;;;;;;4.75;2.90;;;;;;;;;;4974485;28;20187;-73
2023/07/19 10:01:22;;;;;;;7.70;2.80;;;;;;;;;;4973206;28;20215;-72
2023/07/19 10:04:28;;;;;;;5.32;2.75;;;;;;;;;;4974289;28;20215;-72
2023/07/19 10:07:32;;;;;;;8.98;2.95;;;;;;;;;;4974289;28;20635;-72
2023/07/19 10:10:39;;;;;;;3.78;2.90;;;;;;;;;;4974155;28;20195;-72
2023/07/19 10:13:59;;;;;;;3.65;2.58;;;;;;;;;;4974480;28;20171;-72
2023/07/19 10:17:05;;;;;;;6.18;2.90;;;;;;;;;;4974488;28;20179;-72
2023/07/19 10:20:12;;;;;;;4.15;2.65;;;;;;;;;;4973914;28;20689;-72
2023/07/19 10:23:16;;;;;;;6.40;2.78;;;;;;;;;;4973826;28;20207;-72
2023/07/19 10:26:30;;;;;;;4.47;2.60;;;;;;;;;;4974034;28;20187;-73
2023/07/19 10:29:44;;;;;;;7.95;3.03;;;;;;;;;;4973997;28;20191;-73
2023/07/19 10:32:50;;;;;;;3.50;2.45;;;;;;;;;;4965884;28;20232;-71
2023/07/19 10:36:06;;;;;;;5.45;2.63;;;;;;;;;;4963253;28;20203;-71
2023/07/19 10:39:10;;;;;;;4.05;2.55;;;;;;;;;;4965170;28;20215;-71
2023/07/19 10:42:14;;;;;;;5.35;2.78;;;;;;;;;;4968353;28;20211;-72
2023/07/19 10:45:18;;;;;;;3.45;2.63;;;;;;;;;;4958072;29;20179;-72
2023/07/19 10:48:27;;;;;;;5.32;2.50;;;;;;;;;;4958059;29;20183;-72
2023/07/19 10:51:31;;;;;;;7.03;2.70;;;;;;;;;;4958149;28;20216;-72
2023/07/19 10:54:35;;;;;;;6.43;2.70;;;;;;;;;;4957929;29;20184;-72
2023/07/19 10:57:40;;;;;;;6.18;2.45;;;;;;;;;;4957768;29;20184;-71
2023/07/19 11:00:45;;;;;;;3.28;2.63;;;;;;;;;;4956868;28;20231;-72
2023/07/19 11:03:50;;;;;;;4.53;2.70;;;;;;;;;;4957527;29;20207;-72
2023/07/19 11:06:56;;;;;;;8.90;3.00;;;;;;;;;;4945452;29;20216;-72
2023/07/19 11:10:04;;;;;;;6.55;2.90;;;;;;;;;;4957901;29;20515;-72
2023/07/19 11:13:08;;;;;;;3.78;3.10;;;;;;;;;;4956530;29;20635;-72
2023/07/19 11:16:13;;;;;;;3.17;2.30;;;;;;;;;;4957460;29;20180;-72
2023/07/19 11:19:37;;;;;;;5.25;2.72;;;;;;;;;;4956512;29;20220;-72
2023/07/19 11:22:41;;;;;;;6.25;3.17;;;;;;;;;;4957034;28;20223;-72
2023/07/19 11:25:46;;;;;;;5.20;2.88;;;;;;;;;;4956263;29;20659;-72
2023/07/19 11:28:55;;;;;;;4.65;2.80;;;;;;;;;;4956483;29;20176;-72
2023/07/19 11:32:20;;;;;;;4.32;2.70;;;;;;;;;;4956188;28;20223;-72
2023/07/19 11:35:27;;;;;;;4.22;2.63;;;;;;;;;;4956555;28;20204;-71
2023/07/19 11:38:33;;;;;;;3.20;2.70;;;;;;;;;;4956941;29;20180;-72
2023/07/19 11:41:37;;;;;;;3.97;2.80;;;;;;;;;;4956865;28;20215;-72
2023/07/19 11:44:43;;;;;;;5.00;2.38;;;;;;;;;;4956971;29;20184;-72
2023/07/19 11:47:49;;;;;;;4.72;2.70;;;;;;;;;;4957221;29;20179;-72
2023/07/19 11:50:53;;;;;;;7.60;2.80;;;;;;;;;;4956398;28;20215;-72
2023/07/19 11:53:58;;;;;;;3.35;2.50;;;;;;;;;;4956756;29;20199;-72
2023/07/19 11:57:02;;;;;;;3.40;2.50;;;;;;;;;;4956777;29;20184;-72
2023/07/19 12:00:08;;;;;;;3.13;2.60;;;;;;;;;;4956641;29;20215;-72
2023/07/19 12:03:14;;;;;;;4.63;2.70;;;;;;;;;;4956401;29;20207;-73
2023/07/19 12:06:18;;;;;;;3.47;2.60;;;;;;;;;;4956033;28;20203;-72
2023/07/19 12:09:22;;;;;;;3.50;2.72;;;;;;;;;;4956424;29;20608;-72
2023/07/19 12:12:26;;;;;;;3.80;2.60;;;;;;;;;;4956083;28;20215;-72
2023/07/19 12:15:30;;;;;;;4.43;2.40;;;;;;;;;;4956360;29;20184;-72
2023/07/19 12:18:35;;;;;;;5.28;2.58;;;;;;;;;;4955976;29;20180;-72
2023/07/19 12:21:40;;;;;;;8.38;4.68;;;;;;;;;;4956000;28;20228;-72
2023/07/19 12:24:44;;;;;;;4.88;2.88;;;;;;;;;;4957789;28;20206;-71
2023/07/19 12:27:52;;;;;;;3.28;2.53;;;;;;;;;;4972963;28;20198;-71
2023/07/19 12:30:56;;;;;;;5.00;3.03;;;;;;;;;;4973792;28;20218;-71
2023/07/19 12:34:00;;;;;;;5.03;2.80;;;;;;;;;;4973643;28;20203;-72
2023/07/19 12:37:04;;;;;;;4.60;2.63;;;;;;;;;;4955259;28;20559;-71
2023/07/19 12:40:09;;;;;;;6.25;2.80;;;;;;;;;;4955159;29;20208;-72
2023/07/19 12:43:14;;;;;;;5.30;3.10;;;;;;;;;;4955835;29;20180;-72
2023/07/19 12:46:19;;;;;;;4.43;3.00;;;;;;;;;;4956296;29;20647;-72
2023/07/19 12:49:23;;;;;;;5.57;2.88;;;;;;;;;;4955097;29;20198;-72
2023/07/19 12:52:27;;;;;;;5.57;2.80;;;;;;;;;;4955465;28;20682;-72
2023/07/19 12:55:31;;;;;;;6.82;3.30;;;;;;;;;;4955526;29;20188;-72
2023/07/19 12:58:36;;;;;;;7.15;3.20;;;;;;;;;;4955720;29;20631;-72
2023/07/19 13:01:40;;;;;;;3.92;3.05;;;;;;;;;;4955626;28;20211;-72
2023/07/19 13:04:44;;;;;;;7.47;3.00;;;;;;;;;;4955086;28;20208;-71
2023/07/19 13:07:50;;;;;;;6.68;2.75;;;;;;;;;;4966448;28;20211;-71
2023/07/19 13:10:54;;;;;;;5.95;3.08;;;;;;;;;;4972992;28;20226;-72
2023/07/19 13:13:59;;;;;;;5.35;2.70;;;;;;;;;;5011492;23;20601;-73
2023/07/19 13:17:03;;;;;;;3.55;2.70;;;;;;;;;;5012083;28;20182;-73
2023/07/19 13:20:09;;;;;;;5.18;3.10;;;;;;;;;;5012911;28;20202;-73
2023/07/19 13:23:16;;;;;;;4.82;2.42;;;;;;;;;;4993583;28;20186;-73
2023/07/19 13:26:20;;;;;;;5.10;2.75;;;;;;;;;;4994116;28;20186;-73
2023/07/19 13:29:24;;;;;;;7.93;3.05;;;;;;;;;;4993783;28;20179;-73
2023/07/19 13:32:29;;;;;;;5.00;2.70;;;;;;;;;;4994213;28;20214;-72
2023/07/19 13:35:34;;;;;;;4.13;2.60;;;;;;;;;;4994219;28;20175;-73
2023/07/19 13:38:38;;;;;;;4.43;2.55;;;;;;;;;;4993701;28;20638;-73
2023/07/19 13:41:42;;;;;;;4.63;2.78;;;;;;;;;;4993910;28;20700;-72
2023/07/19 13:44:46;;;;;;;5.90;2.40;;;;;;;;;;4994462;28;20182;-72
2023/07/19 13:47:51;;;;;;;2.50;1.92;;;;;;;;;;4993626;28;20186;-73
2023/07/19 13:50:57;;;;;;;4.93;2.28;;;;;;;;;;4993512;28;20214;-73
2023/07/19 13:54:01;;;;;;;4.28;2.40;;;;;;;;;;4993816;28;20178;-73
2023/07/19 13:57:06;;;;;;;4.20;2.60;;;;;;;;;;4993531;28;20645;-72
2023/07/19 14:00:10;;;;;;;4.60;2.15;;;;;;;;;;4993170;28;20206;-72
2023/07/19 14:03:16;;;;;;;7.70;2.20;;;;;;;;;;5003980;28;20187;-72
2023/07/19 14:06:20;;;;;;;5.88;2.65;;;;;;;;;;4993477;28;20527;-73
2023/07/19 14:09:24;;;;;;;3.70;2.10;;;;;;;;;;4993694;28;20186;-73
2023/07/19 14:12:28;;;;;;;3.35;2.40;;;;;;;;;;5003895;28;20565;-72
2023/07/19 14:15:35;;;;;;;2.83;2.30;;;;;;;;;;4996591;28;20179;-72
2023/07/19 14:18:39;;;;;;;5.65;2.30;;;;;;;;;;4997061;28;20194;-72
2023/07/19 14:21:43;;;;;;;3.60;2.10;;;;;;;;;;4997085;28;20230;-72
2023/07/19 14:24:48;;;;;;;11.43;2.35;;;;;;;;;;4997486;28;20182;-72
2023/07/19 14:27:52;;;;;;;4.40;2.10;;;;;;;;;;4997714;28;20665;-72
2023/07/19 14:30:56;;;;;;;4.20;2.00;;;;;;;;;;4996797;28;20206;-73
2023/07/19 14:34:00;;;;;;;4.07;2.20;;;;;;;;;;4996299;28;20174;-72
2023/07/19 14:37:05;;;;;;;2.55;2.00;;;;;;;;;;4996845;28;20179;-72
2023/07/19 14:40:10;;;;;;;4.70;2.35;;;;;;;;;;4996716;28;20206;-72
2023/07/19 14:43:15;;;;;;;3.80;2.13;;;;;;;;;;4996663;28;20182;-73
2023/07/19 14:46:19;;;;;;;5.40;2.22;;;;;;;;;;4996593;28;20186;-73
2023/07/19 14:49:23;;;;;;;5.05;2.17;;;;;;;;;;4996809;28;20183;-72
2023/07/19 14:52:27;;;;;;;8.57;2.50;;;;;;;;;;4996460;28;20210;-72
2023/07/19 14:55:31;;;;;;;4.55;2.55;;;;;;;;;;4997218;28;20179;-72
2023/07/19 14:58:36;;;;;;;5.28;2.50;;;;;;;;;;4996372;28;20520;-72
2023/07/19 15:01:41;;;;;;;5.68;2.40;;;;;;;;;;4996574;28;20704;-73
2023/07/19 15:04:45;;;;;;;2.65;2.25;;;;;;;;;;4996871;28;20680;-73
2023/07/19 15:07:49;;;;;;;3.90;2.05;;;;;;;;;;5007222;28;20174;-73
2023/07/19 15:10:55;;;;;;;4.80;2.28;;;;;;;;;;4996584;28;20214;-73
2023/07/19 15:13:59;;;;;;;3.08;2.40;;;;;;;;;;4996193;28;20206;-72
2023/07/19 15:17:04;;;;;;;5.18;2.40;;;;;;;;;;4995919;28;20198;-73
2023/07/19 15:20:08;;;;;;;6.50;2.45;;;;;;;;;;4995816;28;20222;-72
2023/07/19 15:23:12;;;;;;;3.30;2.05;;;;;;;;;;4995801;28;20195;-72
2023/07/19 15:26:17;;;;;;;4.43;2.10;;;;;;;;;;4994394;28;20183;-73
2023/07/19 15:29:22;;;;;;;4.63;2.20;;;;;;;;;;4996085;28;20183;-72
2023/07/19 15:32:25;;;;;;;4.57;2.50;;;;;;;;;;4994746;28;20558;-72
2023/07/19 15:35:29;;;;;;;8.75;2.45;;;;;;;;;;4995967;28;20523;-72
2023/07/19 15:38:39;;;;;;;7.90;2.70;;;;;;;;;;4995887;28;20179;-72
2023/07/19 15:41:43;;;;;;;6.07;2.20;;;;;;;;;;4996036;28;20238;-72
2023/07/19 15:44:47;;;;;;;5.68;2.47;;;;;;;;;;4995645;28;20202;-72
2023/07/19 15:47:51;;;;;;;3.78;2.40;;;;;;;;;;4995331;28;20642;-72
2023/07/19 15:50:56;;;;;;;3.30;2.80;;;;;;;;;;4995733;28;20210;-72
2023/07/19 15:54:00;;;;;;;4.05;2.30;;;;;;;;;;4995448;28;20178;-72
2023/07/19 15:57:04;;;;;;;3.05;2.17;;;;;;;;;;5005757;28;20297;-71
2023/07/19 16:00:09;;;;;;;5.25;2.35;;;;;;;;;;4995193;28;20199;-72
2023/07/19 16:03:13;;;;;;;4.90;2.20;;;;;;;;;;4994291;28;20182;-72
2023/07/19 16:06:17;;;;;;;3.70;2.58;;;;;;;;;;4994681;28;20199;-72
2023/07/19 16:09:21;;;;;;;5.15;2.70;;;;;;;;;;4995229;28;20665;-72
2023/07/19 16:12:25;;;;;;;5.47;2.70;;;;;;;;;;4994015;28;20222;-71
2023/07/19 16:15:29;;;;;;;5.45;2.30;;;;;;;;;;4994409;28;20182;-72
2023/07/19 16:18:33;;;;;;;3.45;2.13;;;;;;;;;;4993861;28;20204;-72
2023/07/19 16:21:38;;;;;;;3.15;2.35;;;;;;;;;;4994745;28;20234;-72
2023/07/19 16:24:42;;;;;;;3.65;2.53;;;;;;;;;;4995269;28;20198;-72
2023/07/19 16:27:46;;;;;;;5.53;2.72;;;;;;;;;;4994935;28;20189;-72
2023/07/19 16:30:50;;;;;;;5.78;2.53;;;;;;;;;;4994138;28;20218;-72
2023/07/19 16:33:54;;;;;;;5.18;2.47;;;;;;;;;;4994617;28;20183;-72
2023/07/19 16:36:59;;;;;;;8.30;2.83;;;;;;;;;;4994310;28;20189;-72
2023/07/19 16:40:03;;;;;;;3.75;2.65;;;;;;;;;;4994802;28;20625;-72
2023/07/19 16:43:07;;;;;;;5.28;2.33;;;;;;;;;;4994471;28;20184;-72
2023/07/19 16:46:11;;;;;;;6.45;2.33;;;;;;;;;;4994351;28;20200;-72
2023/07/19 16:49:15;;;;;;;4.53;2.60;;;;;;;;;;4994308;28;20198;-72
2023/07/19 16:52:20;;;;;;;3.78;2.67;;;;;;;;;;5005236;28;20574;-72
2023/07/19 16:55:24;;;;;;;3.05;2.55;;;;;;;;;;4994694;28;20188;-72
2023/07/19 16:58:28;;;;;;;5.65;2.70;;;;;;;;;;4994479;28;20190;-72
2023/07/19 17:01:32;;;;;;;5.82;2.47;;;;;;;;;;4993603;28;20230;-72
2023/07/19 17:04:36;;;;;;;11.10;2.88;;;;;;;;;;4994345;28;20202;-72
2023/07/19 17:07:40;;;;;;;2.60;2.35;;;;;;;;;;5004754;28;20194;-72
2023/07/19 17:10:44;;;;;;;4.68;2.50;;;;;;;;;;5004707;28;20224;-72
2023/07/19 17:13:49;;;;;;;4.32;2.35;;;;;;;;;;4994062;28;20203;-72
2023/07/19 17:16:53;;;;;;;4.53;2.22;;;;;;;;;;4993154;28;20187;-72
2023/07/19 17:19:57;;;;;;;2.63;2.33;;;;;;;;;;4994196;28;20186;-72
2023/07/19 17:23:02;;;;;;;6.10;2.40;;;;;;;;;;4993844;28;20542;-72
2023/07/19 17:26:06;;;;;;;3.35;2.38;;;;;;;;;;4994137;28;20182;-72
2023/07/19 17:29:10;;;;;;;4.60;2.30;;;;;;;;;;4994308;28;20181;-71
2023/07/19 17:32:14;;;;;;;4.70;2.53;;;;;;;;;;4993876;28;20225;-72
2023/07/19 17:35:18;;;;;;;3.35;2.33;;;;;;;;;;5004196;28;20632;-72
2023/07/19 17:38:23;;;;;;;5.18;2.15;;;;;;;;;;4993717;28;20185;-71
2023/07/19 17:41:27;;;;;;;2.40;2.03;;;;;;;;;;4993532;28;20230;-71
2023/07/19 17:44:31;;;;;;;4.43;2.00;;;;;;;;;;4994201;28;20211;-71
2023/07/19 17:47:36;;;;;;;5.88;2.30;;;;;;;;;;5004075;28;20177;-71
2023/07/19 17:50:40;;;;;;;4.35;2.25;;;;;;;;;;5008240;28;20525;-71
2023/07/19 17:53:45;;;;;;;4.47;2.08;;;;;;;;;;4998139;28;20369;-71
2023/07/19 17:56:49;;;;;;;3.75;2.20;;;;;;;;;;5008035;28;20193;-71
2023/07/19 17:59:53;;;;;;;3.80;2.28;;;;;;;;;;5007932;28;20522;-72
2023/07/19 18:02:57;;;;;;;3.75;2.20;;;;;;;;;;4997996;28;20543;-72
2023/07/19 18:06:01;;;;;;;9.00;2.28;;;;;;;;;;5008178;28;20186;-71
2023/07/19 18:09:05;;;;;;;11.45;2.58;;;;;;;;;;4997311;28;20548;-72
2023/07/19 18:12:11;;;;;;;3.70;2.30;;;;;;;;;;4997682;28;20210;-72
2023/07/19 18:15:15;;;;;;;3.83;2.38;;;;;;;;;;4996924;28;20190;-71
2023/07/19 18:18:20;;;;;;;5.65;2.60;;;;;;;;;;4997099;28;20181;-72
2023/07/19 18:21:24;;;;;;;6.63;2.60;;;;;;;;;;4997147;28;20251;-72
2023/07/19 18:24:28;;;;;;;3.83;2.45;;;;;;;;;;4996979;28;20195;-71